createdAt,value
2022-09-03T00:00:17.708Z,64.50
2022-09-03T00:02:45.349Z,64.40
2022-09-03T00:05:39.831Z,64.90
2022-09-03T00:08:22.203Z,65.30
2022-09-03T00:11:10.879Z,65.10
2022-09-03T00:13:38.413Z,65.40
2022-09-03T00:16:06.079Z,65.90
2022-09-03T00:18:33.620Z,66.50
2022-09-03T00:21:13.459Z,67.10
2022-09-03T00:23:41.106Z,68.40
2022-09-03T00:26:14.647Z,67.90
2022-09-03T00:28:44.850Z,68.40
2022-09-03T00:31:15.523Z,68.60
2022-09-03T00:33:43.072Z,69.00
2022-09-03T00:36:29.047Z,69.50
2022-09-03T00:38:56.631Z,69.80
2022-09-03T00:41:24.235Z,69.10
2022-09-03T00:44:04.235Z,67.70
2022-09-03T00:46:34.551Z,68.00
2022-09-03T00:49:11.749Z,69.00
2022-09-03T00:51:39.324Z,69.00
2022-09-03T00:54:16.531Z,69.70
2022-09-03T00:57:02.465Z,69.60
2022-09-03T00:59:48.097Z,67.80
2022-09-03T01:02:21.962Z,68.60
2022-09-03T01:05:02.442Z,69.40
2022-09-03T01:07:32.457Z,69.40
2022-09-03T01:10:02.946Z,70.10
2022-09-03T01:12:36.586Z,70.80
2022-09-03T01:15:22.337Z,71.70
2022-09-03T01:18:07.788Z,72.40
2022-09-03T01:20:50.710Z,73.70
2022-09-03T01:23:23.898Z,73.40
2022-09-03T01:26:12.573Z,73.90
2022-09-03T01:28:42.884Z,74.80
2022-09-03T01:31:19.244Z,75.40
2022-09-03T01:34:17.565Z,75.90
2022-09-03T01:36:51.203Z,76.10
2022-09-03T01:39:22.278Z,76.70
2022-09-03T01:42:20.888Z,76.70
2022-09-03T01:45:02.833Z,77.20
2022-09-03T01:47:48.309Z,77.60
2022-09-03T01:50:41.257Z,77.00
2022-09-03T01:53:24.599Z,76.70
2022-09-03T01:56:04.417Z,76.70
2022-09-03T01:58:50.021Z,76.60
2022-09-03T02:01:18.433Z,74.80
2022-09-03T02:03:45.968Z,74.80
2022-09-03T02:06:14.305Z,73.50
2022-09-03T02:08:41.916Z,73.40
2022-09-03T02:11:09.536Z,74.90
2022-09-03T02:13:39.950Z,76.10
2022-09-03T02:16:07.745Z,77.30
2022-09-03T02:18:35.162Z,78.50
2022-09-03T02:21:02.719Z,79.50
2022-09-03T02:23:30.314Z,80.30
2022-09-03T02:25:58.656Z,81.90
2022-09-03T02:28:26.229Z,81.90
2022-09-03T02:30:53.923Z,82.50
2022-09-03T02:33:22.324Z,82.80
2022-09-03T02:35:49.828Z,83.50
2022-09-03T02:38:17.433Z,84.00
2022-09-03T02:40:44.997Z,84.70
2022-09-03T02:43:12.582Z,85.90
2022-09-03T02:45:40.205Z,85.40
2022-09-03T02:48:07.768Z,85.60
2022-09-03T02:50:35.343Z,85.90
2022-09-03T02:53:02.946Z,86.30
2022-09-03T02:55:30.551Z,86.40
2022-09-03T02:57:58.124Z,86.50
2022-09-03T03:00:26.644Z,86.60
2022-09-03T03:02:54.236Z,86.70
2022-09-03T03:05:24.250Z,86.70
2022-09-03T03:07:52.611Z,87.10
2022-09-03T03:10:20.205Z,87.80
2022-09-03T03:12:47.779Z,87.70
2022-09-03T03:15:16.278Z,89.40
2022-09-03T03:17:43.854Z,90.70
2022-09-03T03:20:11.491Z,91.30
2022-09-03T03:22:39.385Z,92.10
2022-09-03T03:25:07.058Z,94.10
2022-09-03T03:27:34.643Z,94.10
2022-09-03T03:30:03.900Z,95.40
2022-09-03T03:32:31.475Z,95.40
2022-09-03T03:34:59.048Z,95.70
2022-09-03T03:37:27.429Z,95.70
2022-09-03T03:39:55.814Z,95.70
2022-09-03T03:42:23.345Z,95.70
2022-09-03T03:44:50.960Z,96.10
2022-09-03T03:47:18.534Z,96.20
2022-09-03T03:49:46.107Z,96.30
2022-09-03T03:52:13.701Z,96.50
2022-09-03T03:54:41.275Z,97.00
2022-09-03T03:57:09.618Z,97.80
2022-09-03T03:59:38.413Z,97.50
2022-09-03T04:02:06.006Z,97.50
2022-09-03T04:04:33.558Z,97.90
2022-09-03T04:07:02.318Z,98.10
2022-09-03T04:09:29.888Z,98.10
2022-09-03T04:11:57.452Z,98.30
2022-09-03T04:14:26.325Z,98.40
2022-09-03T04:16:53.987Z,98.40
2022-09-03T04:19:22.263Z,98.80
2022-09-03T04:21:49.875Z,98.80
2022-09-03T04:24:17.469Z,98.50
2022-09-03T04:26:45.053Z,98.70
2022-09-03T04:29:12.686Z,98.80
2022-09-03T04:31:40.272Z,99.00
2022-09-03T04:34:07.834Z,99.30
2022-09-03T04:36:36.926Z,99.50
2022-09-03T04:39:03.017Z,99.60
2022-09-03T04:41:30.577Z,99.80
2022-09-03T04:43:58.184Z,99.90
2022-09-03T04:46:26.588Z,99.90
2022-09-03T04:48:54.096Z,99.90
2022-09-03T04:51:24.286Z,99.90
2022-09-03T04:53:54.494Z,99.90
2022-09-03T04:56:22.087Z,99.90
2022-09-03T04:58:51.226Z,99.40
2022-09-03T05:01:18.096Z,97.30
2022-09-03T05:03:45.612Z,97.30
2022-09-03T05:06:13.240Z,96.80
2022-09-03T05:08:40.829Z,96.40
2022-09-03T05:11:08.453Z,96.40
2022-09-03T05:13:36.072Z,96.00
2022-09-03T05:16:06.923Z,96.00
2022-09-03T05:18:37.796Z,96.10
2022-09-03T05:21:06.857Z,96.10
2022-09-03T05:23:37.920Z,96.10
2022-09-03T05:26:05.268Z,96.20
2022-09-03T05:28:32.904Z,96.40
2022-09-03T05:31:03.124Z,96.80
2022-09-03T05:33:30.757Z,97.50
2022-09-03T05:36:07.215Z,98.00
2022-09-03T05:38:34.787Z,98.50
2022-09-03T05:41:03.154Z,99.00
2022-09-03T05:43:30.766Z,98.70
2022-09-03T05:46:07.125Z,98.90
2022-09-03T05:48:34.694Z,99.00
2022-09-03T05:51:10.983Z,99.20
2022-09-03T05:53:38.590Z,99.20
2022-09-03T05:56:06.932Z,99.30
2022-09-03T05:58:34.501Z,99.30
2022-09-03T06:01:14.006Z,99.20
2022-09-03T06:03:41.682Z,99.20
2022-09-03T06:06:09.180Z,99.10
2022-09-03T06:08:40.708Z,98.40
2022-09-03T06:11:08.301Z,98.40
2022-09-03T06:13:36.654Z,98.00
2022-09-03T06:16:04.358Z,98.00
2022-09-03T06:18:32.226Z,98.00
2022-09-03T06:21:02.666Z,97.50
2022-09-03T06:23:30.290Z,97.40
2022-09-03T06:26:07.591Z,96.90
2022-09-03T06:28:35.204Z,96.90
2022-09-03T06:31:02.775Z,96.70
2022-09-03T06:33:33.008Z,96.60
2022-09-03T06:36:00.944Z,96.40
2022-09-03T06:38:28.252Z,96.20
2022-09-03T06:40:55.826Z,96.10
2022-09-03T06:43:23.449Z,96.40
2022-09-03T06:45:57.715Z,97.90
2022-09-03T06:48:25.281Z,97.60
2022-09-03T06:50:56.306Z,97.90
2022-09-03T06:53:23.888Z,98.30
2022-09-03T06:56:00.324Z,98.40
2022-09-03T06:58:30.912Z,98.50
2022-09-03T07:01:07.251Z,98.40
2022-09-03T07:03:34.712Z,97.70
2022-09-03T07:06:08.106Z,97.20
2022-09-03T07:08:35.689Z,96.80
2022-09-03T07:11:03.274Z,96.30
2022-09-03T07:13:31.664Z,94.80
2022-09-03T07:15:59.257Z,94.80
2022-09-03T07:18:26.852Z,94.10
2022-09-03T07:20:54.444Z,93.80
2022-09-03T07:23:22.777Z,92.90
2022-09-03T07:25:53.325Z,92.80
2022-09-03T07:28:21.717Z,92.70
2022-09-03T07:30:50.058Z,92.70
2022-09-03T07:33:17.642Z,92.70
2022-09-03T07:35:46.036Z,93.40
2022-09-03T07:38:13.637Z,93.40
2022-09-03T07:40:41.212Z,93.20
2022-09-03T07:43:08.831Z,93.40
2022-09-03T07:45:36.420Z,93.50
2022-09-03T07:48:03.994Z,93.70
2022-09-03T07:50:31.646Z,94.20
2022-09-03T07:52:59.200Z,94.70
2022-09-03T07:55:26.784Z,96.50
2022-09-03T07:57:57.413Z,96.80
2022-09-03T08:00:25.070Z,98.90
2022-09-03T08:02:53.553Z,99.00
2022-09-03T08:05:20.942Z,99.00
2022-09-03T08:07:48.525Z,99.90
2022-09-03T08:10:16.109Z,99.90
2022-09-03T08:12:43.742Z,99.90
2022-09-03T08:15:11.310Z,99.90
2022-09-03T08:17:38.881Z,99.90
2022-09-03T08:20:07.683Z,99.90
2022-09-03T08:22:35.256Z,99.90
2022-09-03T08:25:02.839Z,99.90
2022-09-03T08:27:31.243Z,99.90
2022-09-03T08:29:58.834Z,99.90
2022-09-03T08:32:26.420Z,99.90
2022-09-03T08:34:54.033Z,99.90
2022-09-03T08:37:21.647Z,99.90
2022-09-03T08:39:49.241Z,99.90
2022-09-03T08:42:25.651Z,99.90
2022-09-03T08:44:55.928Z,99.90
2022-09-03T08:47:38.592Z,99.90
2022-09-03T08:50:11.887Z,99.90
2022-09-03T08:52:51.455Z,99.90
2022-09-03T08:55:25.456Z,99.90
2022-09-03T08:58:05.314Z,99.90
2022-09-03T09:00:42.459Z,99.90
2022-09-03T09:03:16.210Z,99.90
2022-09-03T09:05:55.825Z,99.90
2022-09-03T09:08:38.001Z,99.90
2022-09-03T09:11:14.616Z,99.90
2022-09-03T09:13:43.597Z,99.90
2022-09-03T09:16:14.123Z,99.90
2022-09-03T09:19:02.531Z,99.90
2022-09-03T09:21:42.561Z,99.90
2022-09-03T09:24:10.178Z,99.90
2022-09-03T09:26:37.831Z,99.90
2022-09-03T09:29:05.414Z,99.90
2022-09-03T09:31:33.823Z,99.90
2022-09-03T09:34:06.763Z,99.90
2022-09-03T09:36:42.902Z,99.90
2022-09-03T09:39:10.494Z,99.90
2022-09-03T09:41:38.860Z,99.90
2022-09-03T09:44:06.825Z,99.90
2022-09-03T09:46:37.399Z,99.90
2022-09-03T09:49:04.711Z,99.90
2022-09-03T09:51:32.287Z,99.90
2022-09-03T09:54:15.960Z,99.90
2022-09-03T09:56:44.340Z,99.90
2022-09-03T09:59:11.914Z,99.90
2022-09-03T10:01:42.116Z,99.90
2022-09-03T10:04:12.037Z,99.90
2022-09-03T10:06:54.763Z,99.90
2022-09-03T10:09:22.388Z,99.90
2022-09-03T10:12:14.832Z,99.90
2022-09-03T10:14:52.013Z,99.90
2022-09-03T10:17:19.855Z,99.90
2022-09-03T10:19:47.161Z,99.90
2022-09-03T10:22:14.775Z,99.90
2022-09-03T10:25:01.546Z,99.90
2022-09-03T10:27:29.413Z,99.90
2022-09-03T10:29:56.996Z,99.90
2022-09-03T10:32:39.058Z,99.90
2022-09-03T10:35:35.315Z,99.90
2022-09-03T10:38:21.135Z,99.90
2022-09-03T10:40:51.935Z,99.90
2022-09-03T10:43:22.349Z,99.90
2022-09-03T10:46:04.687Z,99.90
2022-09-03T10:48:37.876Z,99.90
2022-09-03T10:51:17.473Z,99.50
2022-09-03T10:53:51.200Z,99.30
2022-09-03T10:56:21.565Z,98.50
2022-09-03T10:59:17.689Z,97.30
2022-09-03T11:01:58.734Z,96.80
2022-09-03T11:04:44.219Z,96.80
2022-09-03T11:07:14.501Z,96.90
2022-09-03T11:09:54.075Z,97.10
2022-09-03T11:12:24.614Z,97.60
2022-09-03T11:14:52.198Z,97.00
2022-09-03T11:17:20.540Z,95.90
2022-09-03T11:19:51.348Z,95.90
2022-09-03T11:22:20.870Z,95.80
2022-09-03T11:24:46.481Z,95.10
2022-09-03T11:27:16.753Z,94.10
2022-09-03T11:29:53.721Z,93.60
2022-09-03T11:32:22.098Z,93.20
2022-09-03T11:34:49.678Z,93.20
2022-09-03T11:37:22.995Z,92.30
2022-09-03T11:39:59.388Z,92.10
2022-09-03T11:42:32.911Z,91.80
2022-09-03T11:45:00.485Z,91.60
2022-09-03T11:47:41.252Z,91.70
2022-09-03T11:50:18.831Z,91.60
2022-09-03T11:52:46.444Z,91.60
2022-09-03T11:55:14.028Z,91.40
2022-09-03T11:57:41.624Z,91.30
2022-09-03T12:00:12.304Z,91.10
2022-09-03T12:02:43.763Z,90.30
2022-09-03T12:05:18.162Z,90.70
2022-09-03T12:07:45.744Z,90.70
2022-09-03T12:10:13.329Z,90.90
2022-09-03T12:12:43.619Z,90.90
2022-09-03T12:15:39.054Z,90.70
2022-09-03T12:18:21.529Z,90.20
2022-09-03T12:20:49.113Z,89.90
2022-09-03T12:23:34.970Z,89.60
2022-09-03T12:26:08.360Z,88.30
2022-09-03T12:28:35.933Z,87.50
2022-09-03T12:31:06.778Z,88.00
2022-09-03T12:33:34.283Z,88.80
2022-09-03T12:36:02.625Z,91.00
2022-09-03T12:38:30.238Z,91.00
2022-09-03T12:43:43.281Z,93.40
2022-09-03T12:48:20.604Z,94.80
2022-09-03T12:50:56.162Z,96.20
2022-09-03T12:53:15.776Z,97.30
2022-09-03T12:55:44.131Z,99.90
2022-09-03T12:58:13.982Z,99.90
2022-09-03T13:00:39.335Z,99.90
2022-09-03T13:03:09.337Z,99.90
2022-09-03T13:05:43.104Z,99.90
2022-09-03T13:08:11.529Z,99.90
2022-09-03T13:10:39.072Z,99.90
2022-09-03T13:13:24.856Z,99.90
2022-09-03T13:15:55.359Z,99.90
2022-09-03T13:18:45.048Z,99.90
2022-09-03T13:21:27.717Z,99.90
2022-09-03T13:24:13.958Z,99.90
2022-09-03T13:26:59.708Z,99.90
2022-09-03T13:29:30.282Z,99.90
2022-09-03T13:32:06.103Z,99.90
2022-09-03T13:34:32.121Z,99.90
2022-09-03T13:37:26.752Z,99.90
2022-09-03T13:40:02.798Z,99.90
2022-09-03T13:42:39.250Z,99.90
2022-09-03T13:45:31.720Z,99.90
2022-09-03T13:48:26.899Z,99.90
2022-09-03T13:51:03.845Z,99.90
2022-09-03T13:53:49.851Z,99.90
2022-09-03T13:56:19.908Z,99.90
2022-09-03T13:58:50.390Z,99.90
2022-09-03T14:01:24.178Z,99.90
2022-09-03T14:03:58.620Z,99.90
2022-09-03T14:06:38.471Z,99.90
2022-09-03T14:09:24.884Z,99.90
2022-09-03T14:12:02.221Z,99.90
2022-09-03T14:14:41.783Z,99.90
2022-09-03T14:17:24.470Z,99.90
2022-09-03T14:20:00.998Z,99.90
2022-09-03T14:22:32.162Z,99.90
2022-09-03T14:25:06.490Z,99.90
2022-09-03T14:27:34.074Z,99.90
2022-09-03T14:30:01.694Z,99.90
2022-09-03T14:32:42.308Z,99.90
2022-09-03T14:35:27.864Z,99.90
2022-09-03T14:38:16.418Z,99.90
2022-09-03T14:40:46.776Z,99.90
2022-09-03T14:43:29.450Z,99.90
2022-09-03T14:46:05.964Z,99.90
2022-09-03T14:48:54.463Z,99.90
2022-09-03T14:51:40.626Z,99.90
2022-09-03T14:54:20.783Z,99.90
2022-09-03T14:57:08.453Z,99.90
2022-09-03T14:59:38.292Z,99.90
2022-09-03T15:02:11.714Z,99.90
2022-09-03T15:04:39.276Z,99.90
2022-09-03T15:07:30.747Z,99.90
2022-09-03T15:10:19.598Z,99.90
2022-09-03T15:12:53.120Z,99.50
2022-09-03T15:15:20.703Z,98.20
2022-09-03T15:18:15.315Z,97.20
2022-09-03T15:20:55.492Z,93.90
2022-09-03T15:23:44.866Z,93.80
2022-09-03T15:26:31.187Z,93.90
2022-09-03T15:29:13.481Z,93.50
2022-09-03T15:31:59.397Z,92.80
2022-09-03T15:34:43.015Z,90.90
2022-09-03T15:37:28.628Z,90.80
2022-09-03T15:39:59.648Z,90.50
2022-09-03T15:42:27.846Z,83.70
2022-09-03T15:44:55.436Z,83.60
2022-09-03T15:47:51.212Z,82.20
2022-09-03T15:50:03.481Z,82.10
2022-09-03T15:52:56.264Z,81.70
2022-09-03T15:55:29.775Z,81.50
2022-09-03T15:58:00.304Z,80.30
2022-09-03T16:00:27.878Z,78.50
2022-09-03T16:02:59.186Z,80.10
2022-09-03T16:05:26.809Z,79.70
2022-09-03T16:08:18.783Z,80.70
2022-09-03T16:10:58.122Z,81.00
2022-09-03T16:13:34.430Z,81.10
2022-09-03T16:16:04.890Z,81.80
2022-09-03T16:18:38.064Z,82.20
2022-09-03T16:21:23.944Z,82.30
2022-09-03T16:23:54.325Z,82.70
2022-09-03T16:26:28.043Z,82.80
2022-09-03T16:28:55.657Z,82.50
2022-09-03T16:31:51.257Z,82.30
2022-09-03T16:34:24.803Z,81.60
2022-09-03T16:37:14.168Z,81.50
2022-09-03T16:39:50.828Z,82.10
2022-09-03T16:42:42.663Z,82.00
2022-09-03T16:45:16.234Z,80.90
2022-09-03T16:47:52.542Z,80.20
2022-09-03T16:50:32.522Z,80.10
2022-09-03T16:53:04.103Z,79.70
2022-09-03T16:56:05.441Z,79.70
2022-09-03T16:58:33.774Z,81.20
2022-09-03T17:01:13.245Z,81.20
2022-09-03T17:04:17.689Z,82.00
2022-09-03T17:07:09.533Z,83.50
2022-09-03T17:09:56.531Z,84.60
2022-09-03T17:12:26.571Z,86.60
2022-09-03T17:15:12.485Z,86.20
2022-09-03T17:17:48.792Z,87.00
2022-09-03T17:20:19.437Z,87.70
2022-09-03T17:22:58.821Z,88.40
2022-09-03T17:25:38.055Z,89.00
2022-09-03T17:28:25.235Z,89.90
2022-09-03T17:30:57.129Z,90.20
2022-09-03T17:33:33.056Z,90.10
2022-09-03T17:36:00.631Z,89.80
2022-09-03T17:38:28.205Z,90.40
2022-09-03T17:41:20.000Z,91.00
2022-09-03T17:43:56.752Z,92.50
2022-09-03T17:46:51.616Z,92.50
2022-09-03T17:49:21.880Z,92.30
2022-09-03T17:52:04.420Z,92.00
2022-09-03T17:54:40.925Z,92.20
2022-09-03T17:57:20.552Z,92.40
2022-09-03T17:59:53.855Z,92.70
2022-09-03T18:02:42.466Z,92.90
2022-09-03T18:05:18.862Z,93.00
2022-09-03T18:08:01.417Z,93.20
2022-09-03T18:10:44.002Z,93.30
2022-09-03T18:13:37.132Z,93.50
2022-09-03T18:16:16.665Z,93.20
2022-09-03T18:18:46.926Z,93.40
2022-09-03T18:21:33.435Z,93.70
2022-09-03T18:24:26.004Z,93.60
2022-09-03T18:27:14.630Z,93.60
2022-09-03T18:30:04.161Z,95.40
2022-09-03T18:32:49.744Z,95.30
2022-09-03T18:35:35.358Z,96.30
2022-09-03T18:38:23.792Z,97.40
2022-09-03T18:41:09.198Z,98.60
2022-09-03T18:43:55.930Z,99.90
2022-09-03T18:48:02.274Z,99.90
2022-09-03T18:49:40.034Z,99.90
2022-09-03T18:52:30.442Z,99.90
2022-09-03T18:55:28.223Z,99.90
2022-09-03T18:58:29.327Z,99.90
2022-09-03T19:01:20.821Z,99.90
2022-09-03T19:04:19.559Z,99.90
2022-09-03T19:07:23.195Z,99.90
2022-09-03T19:10:13.558Z,99.90
2022-09-03T19:13:20.270Z,99.90
2022-09-03T19:16:07.140Z,99.90
2022-09-03T19:18:55.228Z,99.90
2022-09-03T19:21:46.887Z,99.90
2022-09-03T19:24:32.944Z,99.90
2022-09-03T19:27:53.013Z,99.90
2022-09-03T19:30:13.835Z,99.90
2022-09-03T19:33:25.496Z,99.90
2022-09-03T19:36:17.270Z,99.90
2022-09-03T19:39:08.887Z,99.90
2022-09-03T19:41:55.557Z,99.90
2022-09-03T19:44:53.113Z,99.90
2022-09-03T19:47:44.660Z,99.90
2022-09-03T19:50:39.923Z,99.90
2022-09-03T19:53:25.777Z,99.90
2022-09-03T19:56:14.315Z,99.90
2022-09-03T19:59:01.255Z,99.90
2022-09-03T20:01:47.925Z,99.90
2022-09-03T20:04:33.475Z,99.90
2022-09-03T20:07:19.210Z,99.90
2022-09-03T20:10:04.745Z,99.90
2022-09-03T20:12:32.373Z,99.90
2022-09-03T20:14:59.937Z,99.90
2022-09-03T20:17:42.522Z,99.90
2022-09-03T20:20:12.632Z,99.90
2022-09-03T20:22:43.854Z,99.90
2022-09-03T20:25:33.277Z,99.90
2022-09-03T20:28:00.865Z,99.90
2022-09-03T20:30:37.548Z,99.90
2022-09-03T20:33:11.189Z,99.90
2022-09-03T20:35:44.343Z,99.90
2022-09-03T20:38:42.921Z,99.90
2022-09-03T20:41:13.440Z,99.90
2022-09-03T20:43:43.440Z,99.90
2022-09-03T20:46:13.783Z,99.90
2022-09-03T20:48:41.309Z,99.90
2022-09-03T20:51:12.213Z,99.90
2022-09-03T20:54:00.710Z,99.90
2022-09-03T20:56:34.117Z,99.90
2022-09-03T20:59:10.895Z,99.90
2022-09-03T21:01:53.268Z,99.90
2022-09-03T21:04:42.223Z,99.90
2022-09-03T21:07:27.852Z,99.90
2022-09-03T21:10:19.294Z,99.90
2022-09-03T21:12:49.314Z,99.90
2022-09-03T21:15:23.711Z,99.90
2022-09-03T21:18:03.051Z,99.90
2022-09-03T21:20:48.268Z,99.90
2022-09-03T21:23:30.869Z,99.90
2022-09-03T21:26:00.243Z,99.90
2022-09-03T21:28:39.404Z,99.90
2022-09-03T21:31:19.447Z,99.90
2022-09-03T21:33:52.141Z,99.90
2022-09-03T21:36:31.236Z,99.90
2022-09-03T21:39:01.760Z,99.90
2022-09-03T21:41:35.009Z,99.90
2022-09-03T21:44:11.799Z,99.90
2022-09-03T21:46:42.081Z,99.90
2022-09-03T21:49:10.429Z,99.90
2022-09-03T21:52:02.460Z,99.90
2022-09-03T21:54:32.948Z,99.90
2022-09-03T21:57:22.350Z,99.90
2022-09-03T21:59:48.773Z,99.90
2022-09-03T22:02:28.383Z,99.90
2022-09-03T22:04:55.909Z,99.90
2022-09-03T22:07:26.689Z,99.90
2022-09-03T22:09:56.937Z,99.90
2022-09-03T22:12:30.115Z,99.90
2022-09-03T22:14:57.687Z,99.90
2022-09-03T22:17:31.011Z,99.90
2022-09-03T22:19:59.354Z,99.90
2022-09-03T22:22:35.602Z,99.90
2022-09-03T22:25:05.785Z,99.90
2022-09-03T22:27:45.569Z,99.90
2022-09-03T22:30:13.168Z,99.90
2022-09-03T22:32:50.027Z,99.90
2022-09-03T22:35:33.512Z,99.90
2022-09-03T22:38:22.201Z,99.90
2022-09-03T22:40:55.472Z,99.90
2022-09-03T22:43:47.918Z,99.90
2022-09-03T22:46:15.570Z,99.90
2022-09-03T22:49:01.113Z,99.90
2022-09-03T22:51:28.955Z,99.90
2022-09-03T22:54:07.919Z,99.90
2022-09-03T22:56:36.587Z,99.90
2022-09-03T22:59:06.760Z,99.90
2022-09-03T23:01:34.365Z,99.90
2022-09-03T23:04:08.020Z,99.90
2022-09-03T23:06:40.852Z,99.90
2022-09-03T23:09:11.016Z,99.90
2022-09-03T23:11:41.309Z,99.90
2022-09-03T23:14:09.669Z,99.90
2022-09-03T23:16:37.274Z,99.90
2022-09-03T23:19:07.673Z,99.90
2022-09-03T23:21:38.092Z,99.90
2022-09-03T23:24:05.669Z,99.90
2022-09-03T23:26:42.328Z,99.90
2022-09-03T23:29:15.936Z,99.90
2022-09-03T23:31:44.321Z,99.90
2022-09-03T23:34:11.892Z,99.90
2022-09-03T23:37:32.477Z,99.90
2022-09-03T23:40:05.133Z,99.90
2022-09-03T23:42:54.070Z,99.90
2022-09-03T23:45:46.146Z,99.90
2022-09-03T23:48:51.509Z,99.90
2022-09-03T23:51:56.047Z,99.90
2022-09-03T23:54:38.648Z,99.90
2022-09-03T23:57:14.795Z,99.90
2022-09-03T23:59:55.427Z,99.90
